Time;durP1;ratioP1;P1;durP2;ratioP2;P2;SDS_P1;SDS_P2;PMS_P1;PMS_P2;Temp;Humidity;BMP_temperature;BMP_pressure;BME280_temperature;BME280_humidity;BME280_pressure;Samples;Min_cycle;Max_cycle;Signal;HPM_P1;HPM_P2
2022/06/20 00:01:54;;;;;;;;;;;23.80;48.90;23.00;100952.00;;;;5066137;28;20102;-72
2022/06/20 00:04:40;;;;;;;1.38;0.40;;;23.90;48.90;23.00;100966.00;;;;5041284;28;19912;-72
2022/06/20 00:07:26;;;;;;;1.40;0.35;;;23.90;48.90;23.00;100953.00;;;;5060338;28;20044;-73
2022/06/20 00:10:13;;;;;;;2.38;0.93;;;23.90;48.90;23.00;100942.00;;;;5067397;28;20033;-72
2022/06/20 00:13:00;;;;;;;1.17;0.50;;;23.90;49.10;23.00;100938.00;;;;5048098;28;20032;-72
2022/06/20 00:15:46;;;;;;;3.42;0.60;;;23.80;49.10;23.00;100927.00;;;;5051736;28;20440;-72
2022/06/20 00:18:32;;;;;;;2.20;0.40;;;23.90;49.10;23.00;100924.00;;;;5058325;28;20123;-72
2022/06/20 00:21:21;;;;;;;2.00;0.55;;;23.80;49.10;23.00;100927.00;;;;5067570;28;20045;-72
2022/06/20 00:24:07;;;;;;;1.65;0.68;;;23.90;49.20;23.00;100898.00;;;;5062177;28;20040;-72
2022/06/20 00:26:53;;;;;;;0.57;0.40;;;23.80;49.20;22.90;100890.00;;;;5054658;28;20398;-72
2022/06/20 00:29:41;;;;;;;2.88;0.65;;;23.80;49.20;22.90;100890.00;;;;5066108;28;20036;-73
2022/06/20 00:32:27;;;;;;;1.75;0.35;;;23.80;49.30;22.90;100888.00;;;;5056589;28;20120;-73
2022/06/20 00:35:13;;;;;;;1.92;0.60;;;23.80;49.30;22.90;100893.00;;;;5068030;28;20077;-73
2022/06/20 00:38:00;;;;;;;1.08;0.35;;;23.80;49.30;22.90;100888.00;;;;5046452;28;20087;-72
2022/06/20 00:41:01;;;;;;;2.28;0.60;;;23.80;49.30;22.90;100878.00;;;;5052103;28;20053;-73
2022/06/20 00:43:49;;;;;;;1.83;0.60;;;23.80;49.40;22.90;100900.00;;;;5048436;28;20537;-72
2022/06/20 00:46:43;;;;;;;0.50;0.30;;;23.80;49.50;22.90;100933.00;;;;5053918;28;20052;-73
2022/06/20 00:49:45;;;;;;;1.00;0.43;;;23.80;49.40;22.90;100940.00;;;;5057562;28;20101;-72
2022/06/20 00:52:38;;;;;;;1.60;0.50;;;23.80;49.30;22.90;100923.00;;;;5047703;28;20079;-73
2022/06/20 00:55:33;;;;;;;1.10;0.50;;;23.70;49.30;22.90;100934.00;;;;5063509;28;20048;-72
2022/06/20 00:58:34;;;;;;;4.22;0.50;;;23.80;49.40;22.90;100954.00;;;;5047072;28;20499;-72
2022/06/20 01:01:32;;;;;;;2.90;0.60;;;23.70;49.30;22.90;100968.00;;;;5045986;28;20127;-72
2022/06/20 01:04:29;;;;;;;2.10;0.50;;;23.80;49.30;22.90;100985.00;;;;5050537;28;20059;-72
2022/06/20 01:07:56;;;;;;;1.13;0.40;;;23.70;49.30;22.90;100968.00;;;;5052606;28;20097;-72
2022/06/20 01:11:01;;;;;;;1.20;0.38;;;23.70;49.30;22.80;100961.00;;;;5052479;28;20036;-72
2022/06/20 01:13:47;;;;;;;1.10;0.63;;;23.80;49.40;22.90;100944.00;;;;5063492;28;20085;-72
2022/06/20 01:16:33;;;;;;;2.35;0.60;;;23.70;49.30;22.90;100943.00;;;;5060659;28;20033;-72
2022/06/20 01:19:48;;;;;;;2.42;0.65;;;23.70;49.30;22.80;100938.00;;;;5041885;28;20044;-72
2022/06/20 01:22:58;;;;;;;2.05;0.73;;;23.70;49.40;22.80;100948.00;;;;5057646;28;20068;-73
2022/06/20 01:26:12;;;;;;;1.35;0.70;;;23.70;49.40;22.80;100929.00;;;;5067574;28;20043;-72
2022/06/20 01:29:01;;;;;;;1.70;0.40;;;23.70;49.40;22.80;100928.00;;;;5062616;28;20114;-72
2022/06/20 01:31:53;;;;;;;2.55;0.52;;;23.70;49.40;22.80;100925.00;;;;5051542;28;20037;-73
2022/06/20 01:34:39;;;;;;;1.25;0.50;;;23.70;49.50;22.80;100930.00;;;;5037265;28;20409;-72
2022/06/20 01:37:26;;;;;;;2.58;0.50;;;23.60;49.50;22.80;100937.00;;;;5050347;28;20032;-73
2022/06/20 01:40:13;;;;;;;1.15;0.43;;;23.70;49.50;22.80;100939.00;;;;5054489;28;20036;-73
2022/06/20 01:42:59;;;;;;;2.05;0.50;;;23.70;49.50;22.80;100943.00;;;;5045736;28;20055;-72
2022/06/20 01:45:57;;;;;;;1.10;0.40;;;23.70;49.50;22.80;100943.00;;;;5057847;28;20033;-72
2022/06/20 01:48:54;;;;;;;3.58;0.68;;;23.70;49.60;22.80;100944.00;;;;5062666;28;20048;-73
2022/06/20 01:51:57;;;;;;;1.30;0.50;;;23.60;49.60;22.80;100945.00;;;;5048670;28;20174;-73
2022/06/20 01:54:54;;;;;;;4.00;0.80;;;23.70;49.60;22.80;100960.00;;;;5062217;28;20046;-73
2022/06/20 01:57:42;;;;;;;1.65;0.60;;;23.70;49.60;22.80;100955.00;;;;5056232;28;20052;-73
2022/06/20 02:00:28;;;;;;;2.92;0.90;;;23.60;49.50;22.80;100969.00;;;;5031887;28;20082;-73
2022/06/20 02:03:17;;;;;;;2.22;0.90;;;23.50;49.50;22.80;100977.00;;;;5048610;28;20063;-72
2022/06/20 02:06:04;;;;;;;3.63;0.80;;;23.60;49.50;22.80;100985.00;;;;5049562;28;20545;-73
2022/06/20 02:08:52;;;;;;;1.65;0.52;;;23.60;50.20;22.80;101001.00;;;;5052382;28;20520;-73
2022/06/20 02:11:48;;;;;;;2.70;0.70;;;23.60;49.50;22.70;101021.00;;;;5046431;28;20078;-73
2022/06/20 02:14:42;;;;;;;2.53;0.60;;;23.60;49.60;22.70;101038.00;;;;5064256;28;20489;-73
2022/06/20 02:17:35;;;;;;;3.00;0.85;;;23.60;49.40;22.70;101054.00;;;;5043249;28;20040;-72
2022/06/20 02:20:25;;;;;;;3.80;1.05;;;23.60;49.50;22.70;101063.00;;;;5055957;28;20403;-73
2022/06/20 02:23:23;;;;;;;2.70;0.70;;;23.60;49.50;22.70;101075.00;;;;5048850;28;20044;-73
2022/06/20 02:26:09;;;;;;;1.83;0.57;;;23.50;49.40;22.70;101082.00;;;;5048872;28;20071;-73
2022/06/20 02:29:24;;;;;;;4.00;0.88;;;23.50;49.40;22.70;101082.00;;;;5048076;28;20051;-73
2022/06/20 02:32:22;;;;;;;1.63;0.60;;;23.50;49.50;22.70;101074.00;;;;5050916;28;20152;-73
2022/06/20 02:35:11;;;;;;;2.28;0.60;;;23.50;49.50;22.70;101068.00;;;;5045038;28;20075;-73
2022/06/20 02:37:57;;;;;;;2.45;0.80;;;23.50;49.40;22.70;101054.00;;;;5047307;28;20076;-73
2022/06/20 02:40:43;;;;;;;2.85;0.70;;;23.50;49.50;22.70;101059.00;;;;5040869;28;20041;-73
2022/06/20 02:43:46;;;;;;;2.38;0.90;;;23.40;49.50;22.70;101054.00;;;;5062836;28;20044;-73
2022/06/20 02:46:32;;;;;;;0.95;0.60;;;23.50;49.60;22.70;101059.00;;;;5048645;28;20044;-73
2022/06/20 02:49:21;;;;;;;2.30;0.82;;;23.50;49.60;22.70;101069.00;;;;5044142;28;20404;-73
2022/06/20 02:52:08;;;;;;;2.45;0.75;;;23.50;49.60;22.70;101065.00;;;;5044325;28;20036;-73
2022/06/20 02:54:54;;;;;;;4.82;0.73;;;23.50;49.60;22.70;101059.00;;;;5048377;28;20036;-73
2022/06/20 02:57:43;;;;;;;2.50;0.77;;;23.40;49.50;22.70;101054.00;;;;5048428;28;20170;-73
2022/06/20 03:00:48;;;;;;;3.85;0.80;;;23.50;50.30;22.70;101055.00;;;;5055014;28;20075;-73
2022/06/20 03:03:38;;;;;;;2.20;0.90;;;23.50;49.70;22.70;101044.00;;;;5047680;28;20478;-73
2022/06/20 03:06:37;;;;;;;1.33;0.60;;;23.50;49.70;22.60;101045.00;;;;5047270;28;20033;-73
2022/06/20 03:09:28;;;;;;;2.45;0.85;;;23.50;49.70;22.60;101033.00;;;;5050539;28;20389;-72
2022/06/20 03:12:14;;;;;;;2.00;0.70;;;23.50;49.70;22.60;101036.00;;;;5038484;28;20036;-73
2022/06/20 03:15:00;;;;;;;3.00;0.60;;;23.50;49.70;22.60;101033.00;;;;5054026;28;20048;-73
2022/06/20 03:17:47;;;;;;;2.00;0.80;;;23.50;49.70;22.60;101036.00;;;;5060619;28;20055;-73
2022/06/20 03:20:34;;;;;;;1.70;0.50;;;23.50;49.70;22.70;101015.00;;;;5035870;28;20478;-73
2022/06/20 03:23:30;;;;;;;2.43;0.67;;;23.40;49.60;22.60;101010.00;;;;5051179;28;20036;-73
2022/06/20 03:26:23;;;;;;;3.03;0.70;;;23.50;49.70;22.60;100997.00;;;;5065091;28;20045;-73
2022/06/20 03:29:16;;;;;;;2.42;0.90;;;23.50;49.70;22.60;100991.00;;;;5036413;28;20406;-73
2022/06/20 03:32:02;;;;;;;4.40;1.10;;;23.40;49.60;22.60;100983.00;;;;5053398;28;20045;-72
2022/06/20 03:34:48;;;;;;;2.60;0.82;;;23.50;49.60;22.60;100969.00;;;;5050948;28;20132;-72
2022/06/20 03:37:36;;;;;;;2.05;0.80;;;23.40;49.60;22.60;100964.00;;;;5051941;28;20161;-72
2022/06/20 03:40:23;;;;;;;1.90;1.08;;;23.40;49.60;22.60;100952.00;;;;5056960;28;20037;-72
2022/06/20 03:43:11;;;;;;;1.65;0.60;;;23.40;49.60;22.60;100943.00;;;;5050979;28;20045;-73
2022/06/20 03:46:01;;;;;;;2.28;0.70;;;23.50;49.60;22.60;100939.00;;;;5046081;28;20037;-73
2022/06/20 03:49:06;;;;;;;3.03;1.00;;;23.50;49.60;22.60;100938.00;;;;5041474;28;20040;-72
2022/06/20 03:52:09;;;;;;;0.75;0.40;;;23.40;49.60;22.60;100916.00;;;;5048397;28;20032;-72
2022/06/20 03:55:07;;;;;;;2.65;0.70;;;23.50;49.80;22.60;100920.00;;;;5051659;28;20094;-73
2022/06/20 03:58:12;;;;;;;1.98;0.70;;;23.40;49.60;22.60;100915.00;;;;5059328;28;20548;-72
2022/06/20 04:01:10;;;;;;;1.67;0.63;;;23.40;49.60;22.60;100916.00;;;;5064119;28;20383;-72
2022/06/20 04:04:30;;;;;;;1.98;0.60;;;23.50;49.70;22.60;100889.00;;;;5023489;28;20204;-72
2022/06/20 04:07:21;;;;;;;1.75;0.70;;;23.50;49.70;22.60;100877.00;;;;5056673;28;20067;-72
2022/06/20 04:13:40;;;;;;;3.15;0.75;;;23.40;49.70;22.60;100857.00;;;;5049151;28;20029;-72
2022/06/20 04:16:57;;;;;;;2.28;0.98;;;23.40;49.70;22.60;100856.00;;;;5049799;28;20540;-73
2022/06/20 04:19:43;;;;;;;1.73;0.60;;;23.40;49.70;22.60;100858.00;;;;5052191;28;20417;-72
2022/06/20 04:22:32;;;;;;;1.88;0.57;;;23.40;49.70;22.60;100852.00;;;;5036655;28;20052;-72
2022/06/20 04:25:32;;;;;;;1.48;0.73;;;23.40;49.80;22.60;100844.00;;;;5054727;28;20055;-72
2022/06/20 04:28:50;;;;;;;2.50;0.63;;;23.50;49.80;22.60;100833.00;;;;5039382;28;20537;-73
2022/06/20 04:32:02;;;;;;;2.27;0.70;;;23.40;49.80;22.60;100846.00;;;;5054976;28;20040;-73
2022/06/20 04:35:03;;;;;;;2.20;0.80;;;23.40;49.80;22.60;100854.00;;;;5030924;28;20281;-73
2022/06/20 04:37:59;;;;;;;5.10;0.77;;;23.40;49.80;22.60;100871.00;;;;5039640;28;20032;-73
2022/06/20 04:40:58;;;;;;;1.10;0.50;;;23.40;49.80;22.50;100876.00;;;;5052879;28;20201;-73
2022/06/20 04:44:17;;;;;;;1.65;0.60;;;23.40;49.80;22.50;100862.00;;;;5034878;28;20443;-73
2022/06/20 04:47:37;;;;;;;1.98;0.55;;;23.40;49.80;22.60;100847.00;;;;5042670;28;20417;-73
2022/06/20 04:50:26;;;;;;;1.52;0.70;;;23.40;49.80;22.50;100844.00;;;;5054824;28;20045;-73
2022/06/20 04:53:17;;;;;;;1.15;0.50;;;23.40;49.80;22.50;100853.00;;;;5051853;28;20439;-72
2022/06/20 04:56:05;;;;;;;1.42;0.70;;;23.40;49.90;22.60;100853.00;;;;5056204;28;20048;-73
2022/06/20 04:59:03;;;;;;;1.70;0.70;;;23.40;49.80;22.60;100852.00;;;;5056098;28;20047;-73
2022/06/20 05:01:49;;;;;;;0.50;0.40;;;23.40;49.90;22.60;100861.00;;;;5047738;28;20037;-73
2022/06/20 05:04:39;;;;;;;2.85;0.90;;;23.40;49.90;22.60;100865.00;;;;5054783;28;20043;-73
2022/06/20 05:07:31;;;;;;;3.00;0.80;;;23.40;49.90;22.60;100867.00;;;;5047005;28;20032;-73
2022/06/20 05:10:33;;;;;;;1.45;0.50;;;23.40;49.90;22.60;100871.00;;;;5061112;28;20036;-73
2022/06/20 05:14:02;;;;;;;2.33;0.70;;;23.40;50.00;22.50;100872.00;;;;5049017;28;20060;-73
2022/06/20 05:16:50;;;;;;;2.97;0.80;;;23.40;50.00;22.50;100889.00;;;;5067099;28;20059;-72
2022/06/20 05:19:40;;;;;;;2.13;0.60;;;23.40;50.60;22.50;100894.00;;;;5042878;28;20047;-73
2022/06/20 05:22:33;;;;;;;1.70;0.60;;;23.40;50.50;22.50;100901.00;;;;5052033;28;20041;-73
2022/06/20 05:25:21;;;;;;;2.25;0.82;;;23.40;50.00;22.50;100912.00;;;;5051127;28;20119;-73
2022/06/20 05:28:18;;;;;;;2.33;0.57;;;23.40;49.90;22.60;100922.00;;;;5052453;28;20036;-73
2022/06/20 05:31:05;;;;;;;2.30;0.77;;;23.30;49.90;22.50;100928.00;;;;5039849;28;20040;-73
2022/06/20 05:34:27;;;;;;;4.50;1.00;;;23.40;49.90;22.60;100936.00;;;;5049786;28;20040;-73
2022/06/20 05:37:20;;;;;;;2.45;0.50;;;23.40;49.90;22.60;100942.00;;;;5049085;28;20047;-73
2022/06/20 05:40:17;;;;;;;1.67;0.77;;;23.30;49.80;22.50;100956.00;;;;5055159;28;20072;-73
2022/06/20 05:43:05;;;;;;;1.92;0.80;;;23.40;49.90;22.50;100961.00;;;;5063107;28;20106;-73
2022/06/20 05:46:00;;;;;;;2.22;0.90;;;23.40;49.90;22.50;100959.00;;;;5045405;28;20119;-72
2022/06/20 05:48:55;;;;;;;1.52;0.63;;;23.40;49.90;22.60;100972.00;;;;5051730;28;20541;-73
2022/06/20 05:51:41;;;;;;;0.90;0.65;;;23.40;49.90;22.50;100975.00;;;;5048514;28;20572;-73
2022/06/20 05:54:36;;;;;;;1.67;0.60;;;23.40;49.90;22.50;100984.00;;;;5043936;28;20032;-72
2022/06/20 05:57:24;;;;;;;3.85;0.65;;;23.40;49.90;22.60;100985.00;;;;5051040;28;20457;-73
2022/06/20 06:00:17;;;;;;;;;;;23.40;49.90;22.50;100990.00;;;;5060078;28;20468;-73
2022/06/20 06:03:14;;;;;;;4.65;1.00;;;23.40;49.90;22.50;100988.00;;;;5047262;28;20076;-73
2022/06/20 06:06:19;;;;;;;2.85;0.95;;;23.40;49.70;22.50;100987.00;;;;5047371;28;20413;-73
2022/06/20 06:09:48;;;;;;;2.00;0.68;;;23.40;49.80;22.50;100985.00;;;;5062981;28;20048;-73
2022/06/20 06:13:11;;;;;;;2.55;1.02;;;23.40;49.80;22.50;100992.00;;;;5047239;28;20521;-73
2022/06/20 06:19:44;;;;;;;2.53;0.77;;;23.40;49.80;22.50;101013.00;;;;5048663;28;20047;-73
2022/06/20 06:22:34;;;;;;;2.47;0.70;;;23.40;49.90;22.50;101008.00;;;;5051223;28;20051;-73
2022/06/20 06:25:37;;;;;;;1.98;0.50;;;23.40;49.90;22.50;101006.00;;;;5056394;28;20036;-73
2022/06/20 06:28:24;;;;;;;2.80;0.65;;;23.40;49.90;22.50;101012.00;;;;5062333;28;20052;-73
2022/06/20 06:31:25;;;;;;;2.30;0.70;;;23.40;49.80;22.50;101012.00;;;;5049636;28;20068;-73
2022/06/20 06:34:21;;;;;;;2.65;0.70;;;23.40;49.70;22.50;101012.00;;;;5037076;28;20040;-72
2022/06/20 06:37:33;;;;;;;2.95;0.70;;;23.40;49.90;22.50;101026.00;;;;5049906;28;20111;-72
2022/06/20 06:40:36;;;;;;;2.33;0.60;;;23.40;49.90;22.50;101020.00;;;;5033873;28;20051;-73
2022/06/20 06:43:28;;;;;;;2.63;0.70;;;23.40;49.90;22.50;101018.00;;;;5032398;28;20036;-73
2022/06/20 06:46:29;;;;;;;1.55;0.80;;;23.40;50.00;22.50;101017.00;;;;5058962;28;20040;-72
2022/06/20 06:49:23;;;;;;;3.92;1.10;;;23.40;50.00;22.50;101015.00;;;;5049720;28;20119;-72
2022/06/20 06:52:42;;;;;;;1.42;0.70;;;23.40;49.90;22.50;101001.00;;;;5060811;28;20045;-73
2022/06/20 06:55:41;;;;;;;2.00;0.43;;;23.40;50.00;22.50;101004.00;;;;5059772;28;20048;-72
2022/06/20 06:58:45;;;;;;;1.42;0.60;;;23.40;50.00;22.50;101002.00;;;;5052918;28;20112;-73
2022/06/20 07:01:43;;;;;;;4.00;0.75;;;23.40;50.00;22.50;101007.00;;;;5039350;28;20059;-73
2022/06/20 07:05:04;;;;;;;1.47;0.60;;;23.40;50.00;22.50;101013.00;;;;5051638;28;20517;-72
2022/06/20 07:07:56;;;;;;;1.15;0.50;;;23.40;49.90;22.50;101011.00;;;;5023344;28;20776;-72
2022/06/20 07:10:57;;;;;;;4.70;0.60;;;23.40;49.80;22.50;101007.00;;;;5036262;28;20556;-73
2022/06/20 07:14:02;;;;;;;3.30;0.80;;;23.40;49.50;22.50;101010.00;;;;5058360;28;20101;-73
2022/06/20 07:16:56;;;;;;;2.85;0.70;;;23.40;49.70;22.50;101014.00;;;;5063730;28;20068;-72
2022/06/20 07:19:45;;;;;;;2.00;0.70;;;23.40;49.80;22.50;101008.00;;;;5038354;28;20502;-73
2022/06/20 07:22:32;;;;;;;0.77;0.43;;;23.40;49.70;22.60;101011.00;;;;5040482;28;20048;-72
2022/06/20 07:25:27;;;;;;;3.85;0.85;;;23.40;49.70;22.50;101000.00;;;;5052468;28;20350;-72
2022/06/20 07:28:22;;;;;;;1.65;0.60;;;23.40;49.80;22.60;101002.00;;;;5049110;28;20044;-72
2022/06/20 07:31:38;;;;;;;3.40;1.15;;;23.40;49.70;22.60;101012.00;;;;5061058;28;20046;-72
2022/06/20 07:34:33;;;;;;;1.08;0.60;;;23.40;49.60;22.60;101014.00;;;;5056093;28;20041;-72
2022/06/20 07:37:35;;;;;;;4.00;0.82;;;23.50;49.30;22.50;101009.00;;;;5035185;28;20056;-72
2022/06/20 07:40:36;;;;;;;1.52;0.65;;;23.50;49.10;22.60;101021.00;;;;5029507;28;20099;-72
2022/06/20 07:43:35;;;;;;;2.40;0.60;;;23.50;49.20;22.50;101018.00;;;;5059664;28;20047;-72
2022/06/20 07:46:48;;;;;;;2.72;0.60;;;23.50;49.30;22.50;101018.00;;;;5040083;28;20490;-73
2022/06/20 07:50:07;;;;;;;0.60;0.50;;;23.40;49.90;22.50;101020.00;;;;5052986;28;20406;-73
2022/06/20 07:53:17;;;;;;;1.73;0.55;;;23.40;49.20;22.50;101017.00;;;;5052181;28;20083;-73
2022/06/20 07:56:11;;;;;;;1.80;0.70;;;23.50;49.30;22.50;101021.00;;;;5044781;28;20108;-73
2022/06/20 07:59:17;;;;;;;1.05;0.60;;;23.50;49.40;22.50;101017.00;;;;5050703;28;20049;-73
2022/06/20 08:02:22;;;;;;;1.48;0.50;;;23.50;49.50;22.50;101012.00;;;;5047769;28;20036;-73
2022/06/20 08:05:15;;;;;;;2.15;0.47;;;23.50;49.60;22.50;101015.00;;;;5051708;28;20486;-72
2022/06/20 08:08:14;;;;;;;1.17;0.55;;;23.50;49.40;22.50;101011.00;;;;5049241;28;20041;-74
2022/06/20 08:11:39;;;;;;;0.85;0.40;;;23.40;49.30;22.50;101016.00;;;;5059764;28;20062;-74
2022/06/20 08:14:28;;;;;;;3.15;0.98;;;23.50;49.30;22.50;101021.00;;;;5046114;28;20043;-74
2022/06/20 08:17:15;;;;;;;2.42;0.52;;;23.50;49.40;22.50;101019.00;;;;5048384;28;20474;-77
2022/06/20 08:20:01;;;;;;;2.13;0.60;;;23.50;49.40;22.50;101029.00;;;;5047551;28;20052;-76
2022/06/20 08:22:55;;;;;;;0.63;0.43;;;23.50;49.40;22.50;101034.00;;;;5044389;28;20148;-77
2022/06/20 08:25:55;;;;;;;1.85;0.57;;;23.50;49.40;22.50;101034.00;;;;5064721;28;20036;-76
2022/06/20 08:28:54;;;;;;;2.03;0.60;;;23.40;49.40;22.50;101023.00;;;;5049926;28;20040;-76
2022/06/20 08:31:47;;;;;;;1.17;0.50;;;23.50;49.10;22.60;101026.00;;;;5036739;28;20168;-77
2022/06/20 08:34:58;;;;;;;1.27;0.65;;;23.50;49.20;22.50;101033.00;;;;5036115;28;20466;-72
2022/06/20 08:38:23;;;;;;;2.25;0.60;;;23.50;49.20;22.50;101031.00;;;;5054285;28;20116;-73
2022/06/20 08:41:33;;;;;;;1.75;0.68;;;23.50;49.20;22.50;101046.00;;;;5056456;28;20162;-73
2022/06/20 08:44:45;;;;;;;0.95;0.38;;;23.50;49.20;22.50;101054.00;;;;5053767;28;20033;-73
2022/06/20 08:48:03;;;;;;;1.42;0.50;;;23.50;49.10;22.50;101040.00;;;;5034087;28;20140;-73
2022/06/20 08:51:20;;;;;;;2.25;0.63;;;23.50;49.20;22.50;101042.00;;;;5052322;28;20044;-73
2022/06/20 08:54:30;;;;;;;1.77;0.63;;;23.50;49.20;22.50;101043.00;;;;5050432;28;20041;-73
2022/06/20 08:57:55;;;;;;;1.42;0.60;;;23.50;49.10;22.50;101043.00;;;;5050648;28;20048;-73
2022/06/20 09:01:32;;;;;;;2.28;0.70;;;23.50;49.00;22.50;101048.00;;;;5047088;28;20083;-73
2022/06/20 09:04:45;;;;;;;2.00;0.85;;;23.50;48.90;22.50;101039.00;;;;5033731;28;20049;-73
2022/06/20 09:07:49;;;;;;;2.85;0.80;;;23.50;48.80;22.50;101052.00;;;;5067445;28;20406;-75
2022/06/20 09:11:02;;;;;;;1.33;0.47;;;23.50;48.80;22.50;101051.00;;;;5063183;28;20052;-74
2022/06/20 09:14:41;;;;;;;2.05;0.70;;;23.50;48.90;22.50;101047.00;;;;5058494;28;20072;-74
2022/06/20 09:17:54;;;;;;;1.85;0.70;;;23.50;48.90;22.50;101050.00;;;;5066078;28;20671;-74
2022/06/20 09:21:05;;;;;;;0.65;0.40;;;23.50;49.00;22.50;101046.00;;;;5064193;28;20051;-74
2022/06/20 09:24:17;;;;;;;0.90;0.63;;;23.40;48.80;22.50;101056.00;;;;5066680;28;20098;-74
2022/06/20 09:27:09;;;;;;;1.10;0.68;;;23.50;48.60;22.50;101050.00;;;;5064364;28;20045;-74
2022/06/20 09:30:10;;;;;;;2.08;0.82;;;23.50;48.60;22.50;101058.00;;;;5052793;28;20131;-74
2022/06/20 09:33:07;;;;;;;1.13;0.93;;;23.40;48.50;22.50;101051.00;;;;5063725;28;20131;-74
2022/06/20 09:36:12;;;;;;;1.75;0.70;;;23.50;48.60;22.50;101044.00;;;;5052588;28;20436;-74
2022/06/20 09:39:29;;;;;;;2.15;0.85;;;23.50;48.50;22.50;101057.00;;;;5047993;28;20059;-74
2022/06/20 09:42:42;;;;;;;1.42;0.50;;;23.50;48.60;22.50;101057.00;;;;5061618;28;20098;-74
2022/06/20 09:45:39;;;;;;;1.42;0.65;;;23.50;48.60;22.50;101058.00;;;;5041047;28;20048;-74
2022/06/20 09:48:47;;;;;;;1.35;0.43;;;23.50;48.30;22.50;101056.00;;;;5053203;28;20505;-74
2022/06/20 09:52:06;;;;;;;1.13;0.60;;;23.50;48.20;22.50;101064.00;;;;5040207;28;20074;-74
2022/06/20 09:55:18;;;;;;;0.73;0.50;;;23.50;48.20;22.50;101056.00;;;;5063926;28;20040;-72
2022/06/20 09:58:53;;;;;;;2.65;0.77;;;23.50;48.30;22.50;101059.00;;;;5055167;28;20045;-72
2022/06/20 10:01:58;;;;;;;2.03;0.73;;;23.50;48.60;22.50;101052.00;;;;5052497;28;20550;-72
2022/06/20 10:04:59;;;;;;;1.67;0.70;;;23.50;48.30;22.50;101058.00;;;;5051350;28;20485;-73
2022/06/20 10:08:22;;;;;;;1.95;0.60;;;23.50;48.50;22.50;101065.00;;;;5046223;28;20045;-73
2022/06/20 10:11:34;;;;;;;1.77;0.80;;;23.50;48.30;22.50;101068.00;;;;5060568;28;20131;-72
2022/06/20 10:15:06;;;;;;;1.67;0.63;;;23.50;48.40;22.50;101068.00;;;;5055662;28;20462;-72
2022/06/20 10:18:14;;;;;;;0.93;0.73;;;23.50;48.60;22.50;101077.00;;;;5050794;28;20406;-72
2022/06/20 10:21:31;;;;;;;1.25;0.80;;;23.50;48.50;22.50;101076.00;;;;5048294;28;20640;-72
2022/06/20 10:24:58;;;;;;;2.40;0.93;;;23.50;48.20;22.50;101073.00;;;;5054264;28;20040;-71
2022/06/20 10:28:16;;;;;;;1.70;0.70;;;23.50;48.50;22.50;101070.00;;;;5028647;28;20178;-72
2022/06/20 10:31:31;;;;;;;1.15;0.70;;;23.50;48.40;22.50;101073.00;;;;5051681;28;20044;-72
2022/06/20 10:34:30;;;;;;;2.65;0.73;;;23.50;48.40;22.50;101066.00;;;;5051199;28;20060;-72
2022/06/20 10:38:04;;;;;;;0.90;0.73;;;23.50;48.40;22.50;101067.00;;;;5042853;28;20040;-72
2022/06/20 10:41:06;;;;;;;2.90;1.45;;;23.50;48.40;22.50;101062.00;;;;5046272;28;20047;-72
2022/06/20 10:44:11;;;;;;;2.83;0.90;;;23.50;48.20;22.50;101058.00;;;;5059601;28;20047;-72
2022/06/20 10:47:06;;;;;;;2.70;0.98;;;23.60;48.30;22.50;101065.00;;;;5052181;28;20052;-73
2022/06/20 10:50:18;;;;;;;1.67;0.73;;;23.60;47.50;22.50;101069.00;;;;5064053;28;20474;-72
2022/06/20 10:53:32;;;;;;;2.22;1.00;;;23.60;47.40;22.50;101068.00;;;;5035715;28;20041;-72
2022/06/20 10:56:41;;;;;;;1.27;0.75;;;23.60;47.40;22.50;101066.00;;;;5065009;28;20051;-72
2022/06/20 10:59:39;;;;;;;3.17;0.90;;;23.60;47.70;22.50;101064.00;;;;5048926;28;20037;-72
2022/06/20 11:02:25;;;;;;;3.88;1.02;;;23.50;47.70;22.50;101065.00;;;;5059233;28;20422;-73
2022/06/20 11:05:48;;;;;;;2.65;0.82;;;23.60;47.40;22.50;101070.00;;;;5065311;28;20475;-73
2022/06/20 11:08:50;;;;;;;1.63;0.90;;;23.60;47.80;22.50;101069.00;;;;5063751;28;20402;-72
2022/06/20 11:12:00;;;;;;;1.90;0.80;;;23.60;47.30;22.50;101067.00;;;;5065177;28;20072;-72
2022/06/20 11:15:29;;;;;;;1.00;0.50;;;23.60;47.40;22.50;101067.00;;;;5058394;28;20044;-72
2022/06/20 11:18:24;;;;;;;2.42;0.93;;;23.60;47.70;22.50;101064.00;;;;5045141;28;20086;-72
2022/06/20 11:21:37;;;;;;;2.08;0.98;;;23.60;47.40;22.50;101070.00;;;;5048030;28;20127;-72
2022/06/20 11:25:11;;;;;;;3.92;1.08;;;23.60;47.20;22.50;101083.00;;;;5055580;28;20036;-72
2022/06/20 11:28:33;;;;;;;2.45;0.80;;;23.60;47.60;22.50;101069.00;;;;5061724;28;20799;-72
2022/06/20 11:31:46;;;;;;;2.08;0.85;;;23.60;47.90;22.50;101086.00;;;;5058217;28;20090;-72
2022/06/20 11:34:53;;;;;;;1.95;0.93;;;23.60;47.90;22.50;101081.00;;;;5048446;28;20032;-72
2022/06/20 11:37:58;;;;;;;2.70;0.85;;;23.70;47.10;22.50;101084.00;;;;5064421;28;20040;-72
2022/06/20 11:41:18;;;;;;;2.58;0.80;;;23.70;47.40;22.50;101081.00;;;;5060692;28;20051;-72
2022/06/20 11:44:42;;;;;;;;;;;23.70;47.90;22.50;101090.00;;;;5051771;28;20123;-72
2022/06/20 11:47:56;;;;;;;1.83;0.80;;;23.70;48.00;22.50;101082.00;;;;5045564;28;19986;-72
2022/06/20 11:50:49;;;;;;;2.45;1.00;;;23.70;47.80;22.50;101079.00;;;;5058200;28;20566;-72
2022/06/20 11:53:53;;;;;;;4.10;0.90;;;23.70;47.60;22.60;101084.00;;;;5049044;28;20046;-72
2022/06/20 11:57:34;;;;;;;1.33;0.80;;;23.70;47.30;22.60;101082.00;;;;5059998;28;20113;-72
2022/06/20 12:00:23;;;;;;;1.80;0.90;;;23.70;47.40;22.60;101088.00;;;;5039693;28;20045;-72
2022/06/20 12:03:50;;;;;;;3.72;0.77;;;23.70;46.70;22.60;101074.00;;;;5055607;28;20199;-72
2022/06/20 12:06:50;;;;;;;2.47;0.90;;;23.70;46.50;22.60;101077.00;;;;5009041;28;20042;-73
2022/06/20 12:09:48;;;;;;;2.97;0.95;;;23.70;46.10;22.60;101087.00;;;;5056282;28;20068;-73
2022/06/20 12:12:44;;;;;;;2.50;1.00;;;23.70;45.70;22.60;101087.00;;;;5058589;28;20123;-72
2022/06/20 12:15:42;;;;;;;1.90;1.10;;;23.70;45.90;22.60;101085.00;;;;5047638;28;20037;-72
2022/06/20 12:25:54;;;;;;;1.77;0.80;;;23.70;46.90;22.60;101091.00;;;;5047707;28;20059;-72
2022/06/20 12:28:44;;;;;;;3.92;1.23;;;23.70;47.10;22.60;101102.00;;;;5050639;28;20040;-72
2022/06/20 12:31:33;;;;;;;3.15;0.82;;;23.70;47.10;22.60;101092.00;;;;5053604;28;20040;-72
2022/06/20 12:34:54;;;;;;;1.85;0.70;;;23.70;47.30;22.60;101092.00;;;;5033090;28;20489;-72
2022/06/20 12:37:48;;;;;;;1.58;0.90;;;23.70;47.10;22.60;101101.00;;;;5051760;28;20044;-72
2022/06/20 12:40:58;;;;;;;1.58;0.80;;;23.80;46.40;22.60;101088.00;;;;5056054;28;20067;-72
2022/06/20 12:44:30;;;;;;;3.42;0.90;;;23.70;46.80;22.60;101103.00;;;;5048553;28;20041;-72
2022/06/20 12:47:43;;;;;;;1.23;0.75;;;23.70;47.00;22.60;101104.00;;;;5052715;28;20048;-72
2022/06/20 12:51:11;;;;;;;1.38;0.80;;;23.80;47.20;22.60;101105.00;;;;5062448;28;20086;-72
2022/06/20 12:54:31;;;;;;;1.40;0.80;;;23.80;47.30;22.60;101112.00;;;;5052755;28;20366;-72
2022/06/20 12:57:49;;;;;;;2.45;0.90;;;23.70;47.20;22.60;101094.00;;;;5068845;28;20036;-72
2022/06/20 13:01:08;;;;;;;1.38;1.00;;;23.80;47.30;22.60;101104.00;;;;5062595;28;20044;-72
2022/06/20 13:04:22;;;;;;;0.75;0.60;;;23.70;46.80;22.60;101113.00;;;;5030686;28;20079;-72
2022/06/20 13:07:13;;;;;;;2.47;0.73;;;23.80;46.10;22.60;101120.00;;;;5063804;28;20051;-72
2022/06/20 13:10:13;;;;;;;2.55;1.42;;;23.80;45.90;22.60;101117.00;;;;5070165;28;20102;-72
2022/06/20 13:13:47;;;;;;;1.00;0.80;;;23.70;46.20;22.60;101110.00;;;;5062572;28;20425;-72
2022/06/20 13:16:44;;;;;;;1.17;0.75;;;23.70;46.60;22.60;101110.00;;;;5065456;28;20179;-72
2022/06/20 13:19:49;;;;;;;2.60;0.88;;;23.80;46.90;22.60;101107.00;;;;5054357;28;20037;-72
2022/06/20 13:23:24;;;;;;;1.77;0.70;;;23.80;46.60;22.60;101108.00;;;;5063582;28;20079;-72
2022/06/20 13:26:48;;;;;;;1.38;0.80;;;23.80;47.00;22.60;101112.00;;;;5034262;28;20392;-72
2022/06/20 13:29:50;;;;;;;1.80;0.85;;;23.80;46.30;22.60;101103.00;;;;5045149;28;20095;-72
2022/06/20 13:32:43;;;;;;;2.13;0.82;;;23.80;46.20;22.60;101116.00;;;;5048634;28;20105;-72